Epsilon Sea — 3FYE2 — position and weather

sailwx.info

Track history (hours):
 
Tides and Currents Weather Stations Pressure Air Temp Water Temp Dewpoint Dewpoint Depression Visibility Wind Speed Wind Dir Waves Ship Positions

Epsilon Sea

Last reported at 2018-Jul-19 17:51 UTC. Time now 2018-Jul-21 15:40 UTC.
Position N 37°38' E 023°44'.

Length 100 m; draft 6.4 m.

Type: Tanker. MMSI: 354198000.

Date/timePositionNaut miles runAvg speedWind from/ knotsBaromVisibWave heightAir tempDewpointWater temp
2018-Jul-19 17:51N 37°38' E 023°44'411.1
2018-Jul-19 17:30N 37°42' E 023°41'611.3
2018-Jul-19 17:00N 37°47' E 023°38'511.0
2018-Jul-19 16:30N 37°52' E 023°36'5 9.6
2018-Jul-19 16:00N 37°57' E 023°36'4 7.7
2018-Jul-19 15:30N 37°60' E 023°33'3 5.9
2018-Jul-19 15:00N 38°02' E 023°36'0 0.0
2018-Jul-18 16:40N 38°02' E 023°36'0 0.0
2018-Jul-18 16:30N 38°02' E 023°36'2 3.9
2018-Jul-18 15:59N 38°01' E 023°33'1 1.2
2018-Jul-18 15:29N 38°01' E 023°32'0 0.1
2018-Jul-18 14:59N 38°01' E 023°33'0 0.0
2018-Jul-18 14:23N 38°01' E 023°33'0 0.0
2018-Jul-18 13:26N 38°01' E 023°33'0 0.0
2018-Jul-18 12:59N 38°01' E 023°33'0 0.0
2018-Jul-18 12:29N 38°01' E 023°33'0 0.0
2018-Jul-18 11:59N 38°01' E 023°33'0 0.0
2018-Jul-18 11:26N 38°01' E 023°32'0 0.0
2018-Jul-18 10:29N 38°01' E 023°33'0 0.0
2018-Jul-18 09:50N 38°01' E 023°33'0 0.0
2018-Jul-18 09:23N 38°01' E 023°33'0 0.0
2018-Jul-18 08:59N 38°01' E 023°33'0 0.0
2018-Jul-18 08:29N 38°01' E 023°33'0 0.0
2018-Jul-18 07:56N 38°01' E 023°33'0 0.0
2018-Jul-18 06:59N 38°01' E 023°33'0 0.0
2018-Jul-18 06:23N 38°01' E 023°33'0 0.0
2018-Jul-18 05:59N 38°01' E 023°33'0 0.0
2018-Jul-18 05:23N 38°01' E 023°33'0 0.0
2018-Jul-18 04:59N 38°01' E 023°33'0 0.0
2018-Jul-18 04:29N 38°01' E 023°33'0 0.0
2018-Jul-18 03:59N 38°01' E 023°33'0 0.0
2018-Jul-18 03:29N 38°01' E 023°33'0 0.0
2018-Jul-18 02:59N 38°01' E 023°33'0 0.0
2018-Jul-18 02:29N 38°01' E 023°33'0 0.0
2018-Jul-18 01:53N 38°01' E 023°33'0 0.0
2018-Jul-18 01:26N 38°01' E 023°33'0 0.0
2018-Jul-18 00:59N 38°01' E 023°33'0 0.0
2018-Jul-18 00:29N 38°01' E 023°33'0 0.0
2018-Jul-17 23:59N 38°01' E 023°33'0 0.1
2018-Jul-17 23:29N 38°01' E 023°33'0 0.0
2018-Jul-17 22:59N 38°01' E 023°33'0 0.1
2018-Jul-17 22:29N 38°01' E 023°33'0 0.0
2018-Jul-17 21:59N 38°01' E 023°33'0 0.0
2018-Jul-17 21:29N 38°01' E 023°33'0 0.0
2018-Jul-17 20:59N 38°01' E 023°33'0 0.0
2018-Jul-17 20:29N 38°01' E 023°33'0 0.1
2018-Jul-17 19:59N 38°01' E 023°33'0 0.1
2018-Jul-17 19:29N 38°01' E 023°32'0 0.0
2018-Jul-17 18:59N 38°01' E 023°32'0 0.2
2018-Jul-17 18:29N 38°01' E 023°33'0 0.1
2018-Jul-17 17:59N 38°01' E 023°33'0 0.0
2018-Jul-17 17:29N 38°01' E 023°33'0 0.1
2018-Jul-17 16:59N 38°01' E 023°33'0 0.1
2018-Jul-17 16:29N 38°01' E 023°32'0 0.0
2018-Jul-17 15:59N 38°01' E 023°32'0 0.0
2018-Jul-17 15:29N 38°01' E 023°32'0 0.0
2018-Jul-17 14:59N 38°01' E 023°32'0 0.0
2018-Jul-17 14:29N 38°01' E 023°32'0 0.0
2018-Jul-17 13:59N 38°01' E 023°32'0 0.1
2018-Jul-17 13:29N 38°01' E 023°32'0 0.1
2018-Jul-17 12:59N 38°01' E 023°32'4 8.1
2018-Jul-17 12:30N 37°57' E 023°33'3 6.3
2018-Jul-17 12:00N 37°55' E 023°36'2 3.3
2018-Jul-17 11:30N 37°54' E 023°36'611.3
2018-Jul-17 11:00N 37°49' E 023°40'612.4
2018-Jul-17 10:30N 37°43' E 023°44'612.3
2018-Jul-17 10:00N 37°38' E 023°48'612.0
2018-Jul-17 09:30N 37°34' E 023°53'1112.2
2018-Jul-17 08:37N 37°26' E 024°02'312.5
2018-Jul-17 08:23N 37°23' E 024°05'512.2
2018-Jul-17 08:00N 37°20' E 024°09'2512.5
2018-Jul-17 06:02N 37°02' E 024°29'012.9
2018-Jul-17 06:00N 37°01' E 024°29'612.8
2018-Jul-17 05:30N 36°57' E 024°35'612.8
2018-Jul-17 05:00N 36°53' E 024°41'36012.2
2018-Jul-15 23:32N 34°57' E 031°42'012.1
2018-Jul-15 23:30N 34°57' E 031°43'8210.9
2018-Jul-15 15:56N 34°38' E 033°20'911.8
2018-Jul-15 15:09N 34°43' E 033°30'611.6
2018-Jul-15 14:37N 34°46' E 033°36'212.8
2018-Jul-15 14:28N 34°47' E 033°38'611.9
2018-Jul-15 14:00N 34°52' E 033°41'4 0.3
2018-Jul-15 01:14N 34°56' E 033°39'0 0.0
2018-Jul-15 00:44N 34°56' E 033°39'0 0.0
2018-Jul-15 00:30N 34°56' E 033°39'  
2018-Jul-12 12:32N 37°38' E 023°44'111.0
2018-Jul-12 12:27N 37°39' E 023°43'511.1
2018-Jul-12 12:00N 37°43' E 023°40'611.4
2018-Jul-12 11:30N 37°49' E 023°37'611.1
2018-Jul-12 11:00N 37°54' E 023°35'4 9.0
2018-Jul-12 10:30N 37°58' E 023°33'4 8.7
2018-Jul-12 10:00N 38°02' E 023°36'0 0.0
2018-Jul-12 01:53N 38°02' E 023°36'0 0.0
2018-Jul-11 07:25N 38°02' E 023°35'3 6.7
2018-Jul-11 07:01N 38°01' E 023°32'1 2.8
2018-Jul-11 06:31N 38°02' E 023°31'0 0.0
2018-Jul-11 06:01N 38°02' E 023°31'0 0.0
2018-Jul-11 05:31N 38°02' E 023°31'0 0.0
2018-Jul-11 05:01N 38°02' E 023°31'0 0.0
2018-Jul-11 04:24N 38°02' E 023°31'0 0.0
2018-Jul-11 04:00N 38°02' E 023°31'0 0.0
2018-Jul-11 03:30N 38°02' E 023°31'0 0.0
2018-Jul-11 03:00N 38°02' E 023°31'0 0.0
2018-Jul-11 02:28N 38°02' E 023°31'0 0.0
2018-Jul-11 02:01N 38°02' E 023°31'0 0.0
2018-Jul-11 01:31N 38°02' E 023°31'0 0.0
2018-Jul-11 01:01N 38°02' E 023°31'0 0.0
2018-Jul-11 00:28N 38°02' E 023°31'0 0.0
2018-Jul-10 23:57N 38°02' E 023°31'0 0.0
2018-Jul-10 23:27N 38°02' E 023°31'0 0.0
2018-Jul-10 23:00N 38°02' E 023°31'0 0.0
2018-Jul-10 22:30N 38°02' E 023°31'0 0.0
2018-Jul-10 22:00N 38°02' E 023°31'0 0.0
2018-Jul-10 21:30N 38°02' E 023°31'0 0.0
2018-Jul-10 21:01N 38°02' E 023°31'0 0.0
2018-Jul-10 20:31N 38°02' E 023°31'0 0.0
2018-Jul-10 20:00N 38°02' E 023°31'0 0.0
2018-Jul-10 19:31N 38°02' E 023°31'0 0.0
2018-Jul-10 18:54N 38°02' E 023°31'0 0.0
2018-Jul-10 18:28N 38°02' E 023°31'0 0.0
2018-Jul-10 18:00N 38°02' E 023°31'0 0.0
2018-Jul-10 17:24N 38°02' E 023°31'0 0.0
2018-Jul-10 17:00N 38°02' E 023°31'0 0.0
2018-Jul-10 16:31N 38°02' E 023°31'0 0.0
2018-Jul-10 16:01N 38°02' E 023°31'0 0.0
2018-Jul-10 15:31N 38°02' E 023°31'0 0.0
2018-Jul-10 15:00N 38°02' E 023°31'0 0.0
2018-Jul-10 14:31N 38°02' E 023°31'0 0.0
2018-Jul-10 14:00N 38°02' E 023°31'0 0.0
2018-Jul-10 13:28N 38°02' E 023°31'0 0.0
2018-Jul-10 13:00N 38°02' E 023°31'0 0.0
2018-Jul-10 12:30N 38°02' E 023°31'0 0.0
2018-Jul-10 12:00N 38°02' E 023°31'0 0.0
2018-Jul-10 11:27N 38°02' E 023°31'0 0.0
2018-Jul-10 11:00N 38°02' E 023°31'0 0.0
2018-Jul-10 10:30N 38°02' E 023°31'0 0.0
2018-Jul-10 10:00N 38°02' E 023°31'0 0.0
2018-Jul-10 09:31N 38°02' E 023°31'0 0.0
2018-Jul-10 09:00N 38°02' E 023°31'0 0.0
2018-Jul-10 08:30N 38°02' E 023°31'0 0.0
2018-Jul-10 08:00N 38°02' E 023°31'1 1.0
2018-Jul-10 07:30N 38°02' E 023°31'0 0.2
2018-Jul-10 07:00N 38°02' E 023°31'0 0.1
2018-Jul-10 06:30N 38°02' E 023°31'0 0.0
2018-Jul-10 06:00N 38°02' E 023°31'0 0.0
2018-Jul-10 05:30N 38°02' E 023°31'0 0.0
2018-Jul-10 05:00N 38°02' E 023°31'0 0.1
2018-Jul-10 04:30N 38°02' E 023°31'0 0.1
2018-Jul-10 04:00N 38°02' E 023°31'0 0.0
2018-Jul-10 03:30N 38°02' E 023°31'0 0.1
2018-Jul-10 03:00N 38°02' E 023°31'0 0.0
2018-Jul-10 02:30N 38°02' E 023°31'0 0.0
2018-Jul-10 02:00N 38°02' E 023°31'0 0.0
2018-Jul-10 01:30N 38°02' E 023°31'0 0.1
2018-Jul-10 01:00N 38°02' E 023°31'0 0.0
2018-Jul-10 00:30N 38°02' E 023°31'0 0.0
2018-Jul-10 00:00N 38°02' E 023°31'0 0.1
2018-Jul-09 23:30N 38°02' E 023°31'0 0.1
2018-Jul-09 23:00N 38°02' E 023°31'0 0.0
2018-Jul-09 22:30N 38°02' E 023°31'0 0.0
2018-Jul-09 22:00N 38°02' E 023°31'0 0.0
2018-Jul-09 21:30N 38°02' E 023°31'0 0.0
2018-Jul-09 21:00N 38°02' E 023°31'0 0.1
2018-Jul-09 20:30N 38°02' E 023°31'0 0.1
2018-Jul-09 20:00N 38°02' E 023°31'0 0.2
2018-Jul-09 19:30N 38°02' E 023°31'0 0.0
2018-Jul-09 19:00N 38°02' E 023°31'0 0.0
2018-Jul-09 18:30N 38°02' E 023°31'0 0.0
2018-Jul-09 17:57N 38°02' E 023°31'  
Track history (hours):
 
Tides and Currents Weather Stations Pressure Air Temp Water Temp Dewpoint Dewpoint Depression Visibility Wind Speed Wind Dir Waves Ship Positions

Epsilon Sea

Last reported at 2018-Jul-19 17:51 UTC. Time now 2018-Jul-21 15:40 UTC.
Position N 37°38' E 023°44'.

Length 100 m; draft 6.4 m.

Type: Tanker. MMSI: 354198000.

Date/timePositionNaut miles runAvg speedWind from/ knotsBaromVisibWave heightAir tempDewpointWater temp
2018-Jul-19 17:51N 37°38' E 023°44'411.1
2018-Jul-19 17:30N 37°42' E 023°41'611.3
2018-Jul-19 17:00N 37°47' E 023°38'511.0
2018-Jul-19 16:30N 37°52' E 023°36'5 9.6
2018-Jul-19 16:00N 37°57' E 023°36'4 7.7
2018-Jul-19 15:30N 37°60' E 023°33'3 5.9
2018-Jul-19 15:00N 38°02' E 023°36'0 0.0
2018-Jul-18 16:40N 38°02' E 023°36'0 0.0
2018-Jul-18 16:30N 38°02' E 023°36'2 3.9
2018-Jul-18 15:59N 38°01' E 023°33'1 1.2
2018-Jul-18 15:29N 38°01' E 023°32'0 0.1
2018-Jul-18 14:59N 38°01' E 023°33'0 0.0
2018-Jul-18 14:23N 38°01' E 023°33'0 0.0
2018-Jul-18 13:26N 38°01' E 023°33'0 0.0
2018-Jul-18 12:59N 38°01' E 023°33'0 0.0
2018-Jul-18 12:29N 38°01' E 023°33'0 0.0
2018-Jul-18 11:59N 38°01' E 023°33'0 0.0
2018-Jul-18 11:26N 38°01' E 023°32'0 0.0
2018-Jul-18 10:29N 38°01' E 023°33'0 0.0
2018-Jul-18 09:50N 38°01' E 023°33'0 0.0
2018-Jul-18 09:23N 38°01' E 023°33'0 0.0
2018-Jul-18 08:59N 38°01' E 023°33'0 0.0
2018-Jul-18 08:29N 38°01' E 023°33'0 0.0
2018-Jul-18 07:56N 38°01' E 023°33'0 0.0
2018-Jul-18 06:59N 38°01' E 023°33'0 0.0
2018-Jul-18 06:23N 38°01' E 023°33'0 0.0
2018-Jul-18 05:59N 38°01' E 023°33'0 0.0
2018-Jul-18 05:23N 38°01' E 023°33'0 0.0
2018-Jul-18 04:59N 38°01' E 023°33'0 0.0
2018-Jul-18 04:29N 38°01' E 023°33'0 0.0
2018-Jul-18 03:59N 38°01' E 023°33'0 0.0
2018-Jul-18 03:29N 38°01' E 023°33'0 0.0
2018-Jul-18 02:59N 38°01' E 023°33'0 0.0
2018-Jul-18 02:29N 38°01' E 023°33'0 0.0
2018-Jul-18 01:53N 38°01' E 023°33'0 0.0
2018-Jul-18 01:26N 38°01' E 023°33'0 0.0
2018-Jul-18 00:59N 38°01' E 023°33'0 0.0
2018-Jul-18 00:29N 38°01' E 023°33'0 0.0
2018-Jul-17 23:59N 38°01' E 023°33'0 0.1
2018-Jul-17 23:29N 38°01' E 023°33'0 0.0
2018-Jul-17 22:59N 38°01' E 023°33'0 0.1
2018-Jul-17 22:29N 38°01' E 023°33'0 0.0
2018-Jul-17 21:59N 38°01' E 023°33'0 0.0
2018-Jul-17 21:29N 38°01' E 023°33'0 0.0
2018-Jul-17 20:59N 38°01' E 023°33'0 0.0
2018-Jul-17 20:29N 38°01' E 023°33'0 0.1
2018-Jul-17 19:59N 38°01' E 023°33'0 0.1
2018-Jul-17 19:29N 38°01' E 023°32'0 0.0
2018-Jul-17 18:59N 38°01' E 023°32'0 0.2
2018-Jul-17 18:29N 38°01' E 023°33'0 0.1
2018-Jul-17 17:59N 38°01' E 023°33'0 0.0
2018-Jul-17 17:29N 38°01' E 023°33'0 0.1
2018-Jul-17 16:59N 38°01' E 023°33'0 0.1
2018-Jul-17 16:29N 38°01' E 023°32'0 0.0
2018-Jul-17 15:59N 38°01' E 023°32'0 0.0
2018-Jul-17 15:29N 38°01' E 023°32'0 0.0
2018-Jul-17 14:59N 38°01' E 023°32'0 0.0
2018-Jul-17 14:29N 38°01' E 023°32'0 0.0
2018-Jul-17 13:59N 38°01' E 023°32'0 0.1
2018-Jul-17 13:29N 38°01' E 023°32'0 0.1
2018-Jul-17 12:59N 38°01' E 023°32'4 8.1
2018-Jul-17 12:30N 37°57' E 023°33'3 6.3
2018-Jul-17 12:00N 37°55' E 023°36'2 3.3
2018-Jul-17 11:30N 37°54' E 023°36'611.3
2018-Jul-17 11:00N 37°49' E 023°40'612.4
2018-Jul-17 10:30N 37°43' E 023°44'612.3
2018-Jul-17 10:00N 37°38' E 023°48'612.0
2018-Jul-17 09:30N 37°34' E 023°53'1112.2
2018-Jul-17 08:37N 37°26' E 024°02'312.5
2018-Jul-17 08:23N 37°23' E 024°05'512.2
2018-Jul-17 08:00N 37°20' E 024°09'2512.5
2018-Jul-17 06:02N 37°02' E 024°29'012.9
2018-Jul-17 06:00N 37°01' E 024°29'612.8
2018-Jul-17 05:30N 36°57' E 024°35'612.8
2018-Jul-17 05:00N 36°53' E 024°41'36012.2
2018-Jul-15 23:32N 34°57' E 031°42'012.1
2018-Jul-15 23:30N 34°57' E 031°43'8210.9
2018-Jul-15 15:56N 34°38' E 033°20'911.8
2018-Jul-15 15:09N 34°43' E 033°30'611.6
2018-Jul-15 14:37N 34°46' E 033°36'212.8
2018-Jul-15 14:28N 34°47' E 033°38'611.9
2018-Jul-15 14:00N 34°52' E 033°41'4 0.3
2018-Jul-15 01:14N 34°56' E 033°39'0 0.0
2018-Jul-15 00:44N 34°56' E 033°39'0 0.0
2018-Jul-15 00:30N 34°56' E 033°39'  
2018-Jul-12 12:32N 37°38' E 023°44'111.0
2018-Jul-12 12:27N 37°39' E 023°43'511.1
2018-Jul-12 12:00N 37°43' E 023°40'611.4
2018-Jul-12 11:30N 37°49' E 023°37'611.1
2018-Jul-12 11:00N 37°54' E 023°35'4 9.0
2018-Jul-12 10:30N 37°58' E 023°33'4 8.7
2018-Jul-12 10:00N 38°02' E 023°36'0 0.0
2018-Jul-12 01:53N 38°02' E 023°36'0 0.0
2018-Jul-11 07:25N 38°02' E 023°35'3 6.7
2018-Jul-11 07:01N 38°01' E 023°32'1 2.8
2018-Jul-11 06:31N 38°02' E 023°31'0 0.0
2018-Jul-11 06:01N 38°02' E 023°31'0 0.0
2018-Jul-11 05:31N 38°02' E 023°31'0 0.0
2018-Jul-11 05:01N 38°02' E 023°31'0 0.0
2018-Jul-11 04:24N 38°02' E 023°31'0 0.0
2018-Jul-11 04:00N 38°02' E 023°31'0 0.0
2018-Jul-11 03:30N 38°02' E 023°31'0 0.0
2018-Jul-11 03:00N 38°02' E 023°31'0 0.0
2018-Jul-11 02:28N 38°02' E 023°31'0 0.0
2018-Jul-11 02:01N 38°02' E 023°31'0 0.0
2018-Jul-11 01:31N 38°02' E 023°31'0 0.0
2018-Jul-11 01:01N 38°02' E 023°31'0 0.0
2018-Jul-11 00:28N 38°02' E 023°31'0 0.0
2018-Jul-10 23:57N 38°02' E 023°31'0 0.0
2018-Jul-10 23:27N 38°02' E 023°31'0 0.0
2018-Jul-10 23:00N 38°02' E 023°31'0 0.0
2018-Jul-10 22:30N 38°02' E 023°31'0 0.0
2018-Jul-10 22:00N 38°02' E 023°31'0 0.0
2018-Jul-10 21:30N 38°02' E 023°31'0 0.0
2018-Jul-10 21:01N 38°02' E 023°31'0 0.0
2018-Jul-10 20:31N 38°02' E 023°31'0 0.0
2018-Jul-10 20:00N 38°02' E 023°31'0 0.0
2018-Jul-10 19:31N 38°02' E 023°31'0 0.0
2018-Jul-10 18:54N 38°02' E 023°31'0 0.0
2018-Jul-10 18:28N 38°02' E 023°31'0 0.0
2018-Jul-10 18:00N 38°02' E 023°31'0 0.0
2018-Jul-10 17:24N 38°02' E 023°31'0 0.0
2018-Jul-10 17:00N 38°02' E 023°31'0 0.0
2018-Jul-10 16:31N 38°02' E 023°31'0 0.0
2018-Jul-10 16:01N 38°02' E 023°31'0 0.0
2018-Jul-10 15:31N 38°02' E 023°31'0 0.0
2018-Jul-10 15:00N 38°02' E 023°31'0 0.0
2018-Jul-10 14:31N 38°02' E 023°31'0 0.0
2018-Jul-10 14:00N 38°02' E 023°31'0 0.0
2018-Jul-10 13:28N 38°02' E 023°31'0 0.0
2018-Jul-10 13:00N 38°02' E 023°31'0 0.0
2018-Jul-10 12:30N 38°02' E 023°31'0 0.0
2018-Jul-10 12:00N 38°02' E 023°31'0 0.0
2018-Jul-10 11:27N 38°02' E 023°31'0 0.0
2018-Jul-10 11:00N 38°02' E 023°31'0 0.0
2018-Jul-10 10:30N 38°02' E 023°31'0 0.0
2018-Jul-10 10:00N 38°02' E 023°31'0 0.0
2018-Jul-10 09:31N 38°02' E 023°31'0 0.0
2018-Jul-10 09:00N 38°02' E 023°31'0 0.0
2018-Jul-10 08:30N 38°02' E 023°31'0 0.0
2018-Jul-10 08:00N 38°02' E 023°31'1 1.0
2018-Jul-10 07:30N 38°02' E 023°31'0 0.2
2018-Jul-10 07:00N 38°02' E 023°31'0 0.1
2018-Jul-10 06:30N 38°02' E 023°31'0 0.0
2018-Jul-10 06:00N 38°02' E 023°31'0 0.0
2018-Jul-10 05:30N 38°02' E 023°31'0 0.0
2018-Jul-10 05:00N 38°02' E 023°31'0 0.1
2018-Jul-10 04:30N 38°02' E 023°31'0 0.1
2018-Jul-10 04:00N 38°02' E 023°31'0 0.0
2018-Jul-10 03:30N 38°02' E 023°31'0 0.1
2018-Jul-10 03:00N 38°02' E 023°31'0 0.0
2018-Jul-10 02:30N 38°02' E 023°31'0 0.0
2018-Jul-10 02:00N 38°02' E 023°31'0 0.0
2018-Jul-10 01:30N 38°02' E 023°31'0 0.1
2018-Jul-10 01:00N 38°02' E 023°31'0 0.0
2018-Jul-10 00:30N 38°02' E 023°31'0 0.0
2018-Jul-10 00:00N 38°02' E 023°31'0 0.1
2018-Jul-09 23:30N 38°02' E 023°31'0 0.1
2018-Jul-09 23:00N 38°02' E 023°31'0 0.0
2018-Jul-09 22:30N 38°02' E 023°31'0 0.0
2018-Jul-09 22:00N 38°02' E 023°31'0 0.0
2018-Jul-09 21:30N 38°02' E 023°31'0 0.0
2018-Jul-09 21:00N 38°02' E 023°31'0 0.1
2018-Jul-09 20:30N 38°02' E 023°31'0 0.1
2018-Jul-09 20:00N 38°02' E 023°31'0 0.2
2018-Jul-09 19:30N 38°02' E 023°31'0 0.0
2018-Jul-09 19:00N 38°02' E 023°31'0 0.0
2018-Jul-09 18:30N 38°02' E 023°31'0 0.0
2018-Jul-09 17:57N 38°02' E 023°31'  

Dump ship's entire track history